Create Custom Reports and Graphics: Custom Report

Stanford Met Tower

Current Conditions

11/18/18 6:30 AM (-08:00)
Updated Every 15 Minutes
Temp 47.8 °F   12.3
RH 92 %   15
Dew Pt 45.2 °F   16.4
Wind Dir WSW | 238 °
Wind Spd 4.3 mph   0.7
Wind Gust 5.6 mph   1.5
Solar Rad 0 W/m2   0
Daily Min Temp 37.8 °F   2.7
Daily Max Temp 48.1 °F   7.7
Daily Max Wind 8.1 mph   0.9
Daily Rain 0.00 In
Min Temp Yest 34.3 °F
Max Temp Yest 66.0 °F
Max Wind Yest 10.7 mph
Rain Yest 0.00 In
Seasonal Rainfall 0.07 In

Last 48 Hours

Stanford Met Tower

Hourly Data | America/Los_Angeles
as of 11/18/18 6:43 AM PST
Date Time Temp (°F) Upper Temp (°F) Temp Inversion (°F) RH (%) Dew Pt (°F) Wind Dir (°) Wind Spd (mph) Wind Gust (mph) Latest Rain (In) ETo Hr (in) ETo 2pm (In) Daily Rain (In) Daily Min Temp (°F) Daily Max Temp (°F) Day
11/18/18 0600 47.8 48.2 0.3 92 44.7 W | 267 2.5 4.2 0.00 0.000 0.06 0.00 37.8 48.0 11/18/18
11/18/18 0500 47.2 47.4 0.2 93 44.3 SSW | 197 3.8 6.4 0.00 0.000 0.06 0.00 37.8 47.2 11/18/18
11/18/18 0400 44.9 46.4 1.6 92 42.3 SSW | 192 3.6 7.5 0.00 0.000 0.06 0.00 37.8 45.6 11/18/18
11/18/18 0300 44.4 45.7 1.3 93 41.6 SSW | 197 4.9 7.4 0.00 0.000 0.06 0.00 37.8 44.7 11/18/18
11/18/18 0200 42.2 42.9 0.8 93 38.6 SSW | 202 4.8 7.6 0.00 0.000 0.06 0.00 37.8 42.2 11/18/18
11/18/18 0100 39.1 41.6 2.5 91 35.6 SSW | 206 5.0 8.1 0.00 0.000 0.06 0.00 37.8 39.5 11/18/18
11/18/18 0000 38.7 42.5 3.8 90 35.6 SSW | 197 5.2 7.8 0.00 0.000 0.06 0.00 34.3 66.0 11/17/18
11/17/18 2300 39.6 43.3 3.7 90 37.3 SSW | 198 4.6 7.8 0.00 0.000 0.06 0.00 34.3 66.0 11/17/18
11/17/18 2200 40.6 43.8 3.2 89 37.7 SW | 220 3.3 5.4 0.00 0.000 0.06 0.00 34.3 66.0 11/17/18
11/17/18 2100 42.3 45.0 2.7 88 39.3 SSW | 202 4.1 7.0 0.00 0.000 0.06 0.00 34.3 66.0 11/17/18
11/17/18 2000 44.9 47.0 2.2 86 39.5 SSW | 192 3.9 7.5 0.00 0.000 0.06 0.00 34.3 66.0 11/17/18
11/17/18 1900 45.1 48.9 3.7 83 40.8 S | 186 3.5 5.2 0.00 0.000 0.06 0.00 34.3 66.0 11/17/18
11/17/18 1800 49.5 52.1 2.6 80 43.5 ENE | 67 2.8 6.1 0.00 0.000 0.06 0.00 34.3 66.0 11/17/18
11/17/18 1700 54.6 56.4 1.8 64 45.0 NNE | 29 2.8 5.5 0.00 0.000 0.06 0.00 34.3 66.0 11/17/18
11/17/18 1600 60.0 58.9 -1.0 54 47.3 N | 359 3.9 8.0 0.00 0.003 0.06 0.00 34.3 66.0 11/17/18
11/17/18 1500 62.0 59.6 -2.4 52 48.2 N | 354 5.4 10.7 0.00 0.007 0.06 0.00 34.3 66.0 11/17/18
11/17/18 1400 64.1 59.8 -4.3 47 47.5 N | 5 5.4 9.3 0.00 0.010 0.06 0.00 34.3 66.0 11/17/18
11/17/18 1300 65.5 60.4 -5.1 38 43.7 NE | 41 3.0 7.3 0.00 0.012 0.06 0.00 34.3 66.0 11/17/18
11/17/18 1200 60.7 58.3 -2.4 41 42.6 N | 11 2.8 6.5 0.00 0.011 0.06 0.00 34.3 62.6 11/17/18
11/17/18 1100 59.4 55.5 -3.9 51 45.8 N | 355 4.2 7.6 0.00 0.009 0.06 0.00 34.3 59.9 11/17/18
11/17/18 1000 55.7 53.5 -2.2 54 42.5 NNW | 328 2.6 6.5 0.00 0.006 0.06 0.00 34.3 56.0 11/17/18
11/17/18 0900 47.5 48.8 1.3 77 37.5 SW | 223 3.5 5.7 0.00 0.002 0.06 0.00 34.3 47.5 11/17/18
11/17/18 0800 37.9 39.8 1.9 82 30.8 SSW | 206 5.7 8.2 0.00 0.000 0.06 0.00 34.3 40.4 11/17/18
11/17/18 0700 34.9 38.6 3.7 80 28.4 SSW | 201 4.9 8.3 0.00 0.000 0.06 0.00 34.3 40.4 11/17/18
11/17/18 0600 35.9 39.3 3.4 78 29.3 SSW | 204 4.8 8.0 0.00 0.000 0.06 0.00 35.4 40.4 11/17/18
11/17/18 0500 36.6 40.4 3.9 77 29.0 SSW | 200 5.9 8.2 0.00 0.000 0.06 0.00 35.4 40.4 11/17/18
11/17/18 0400 36.7 39.1 2.4 75 28.2 S | 188 4.6 9.0 0.00 0.000 0.06 0.00 36.1 40.4 11/17/18
11/17/18 0300 38.1 40.8 2.7 74 29.3 SSW | 205 5.6 7.9 0.00 0.000 0.06 0.00 37.0 40.4 11/17/18
11/17/18 0200 37.8 41.0 3.1 72 29.2 SSW | 204 5.6 8.1 0.00 0.000 0.06 0.00 37.0 40.4 11/17/18
11/17/18 0100 38.2 42.1 3.8 73 29.9 SSW | 207 5.3 7.7 0.00 0.000 0.06 0.00 37.7 40.0 11/17/18
11/17/18 0000 39.2 43.2 4.0 70 29.8 SSW | 201 5.2 7.9 0.00 0.000 0.06 0.00 34.6 71.3 11/16/18
11/16/18 2300 40.2 44.3 4.0 66 29.9 SSW | 200 5.6 8.4 0.00 0.000 0.06 0.00 34.6 71.3 11/16/18
11/16/18 2200 41.3 45.4 4.1 67 31.0 SSW | 205 5.7 7.8 0.00 0.000 0.06 0.00 34.6 71.3 11/16/18
11/16/18 2100 43.6 46.6 3.0 62 30.9 SSW | 203 5.8 8.1 0.00 0.000 0.06 0.00 34.6 71.3 11/16/18
11/16/18 2000 44.4 48.2 3.8 64 32.4 SSW | 203 5.7 8.9 0.00 0.000 0.06 0.00 34.6 71.3 11/16/18
11/16/18 1900 47.3 50.6 3.3 63 34.1 SSW | 206 3.9 6.7 0.00 0.000 0.06 0.00 34.6 71.3 11/16/18
11/16/18 1800 48.8 55.4 6.5 64 38.7 SW | 236 2.1 4.5 0.00 0.000 0.06 0.00 34.6 71.3 11/16/18
11/16/18 1700 55.0 58.8 3.7 47 39.4 NNW | 333 2.1 4.0 0.00 0.000 0.06 0.00 34.6 71.3 11/16/18
11/16/18 1600 64.4 63.9 -0.6 33 39.7 N | 9 3.0 5.8 0.00 0.003 0.06 0.00 34.6 71.3 11/16/18
11/16/18 1500 69.1 66.5 -2.6 22 36.3 NNE | 33 1.9 5.2 0.00 0.007 0.06 0.00 34.6 71.3 11/16/18
11/16/18 1400 69.3 67.1 -2.2 14 23.7 WNW | 284 1.7 3.3 0.00 0.010 0.06 0.00 34.6 71.2 11/16/18
11/16/18 1300 69.4 65.4 -4.0 19 29.4 ENE | 77 2.2 5.7 0.00 0.012 0.06 0.00 34.6 69.5 11/16/18
11/16/18 1200 65.2 62.4 -2.8 19 27.4 ESE | 119 3.0 6.7 0.00 0.012 0.06 0.00 34.6 66.3 11/16/18
11/16/18 1100 62.6 59.0 -3.6 24 31.1 E | 96 2.2 4.6 0.00 0.009 0.06 0.00 34.6 62.8 11/16/18
11/16/18 1000 57.5 56.1 -1.4 29 29.4 NW | 307 1.6 5.7 0.00 0.006 0.06 0.00 34.6 58.1 11/16/18
11/16/18 0900 48.7 50.0 1.3 61 33.6 SSW | 212 3.7 8.2 0.00 0.002 0.06 0.00 34.6 48.9 11/16/18
11/16/18 0800 39.3 42.1 2.7 74 29.6 SSW | 199 3.2 6.5 0.00 0.000 0.06 0.00 34.6 40.8 11/16/18
11/16/18 0700 35.0 38.3 3.3 75 27.3 S | 181 3.7 7.1 0.00 0.000 0.06 0.00 34.6 40.8 11/16/18
11/16/18 0600 34.9 39.0 4.0 75 27.6 SSW | 197 5.9 9.8 0.00 0.000 0.06 0.00 34.6 40.8 11/16/18